Grimes, IA (50111)

10:19 AM CDT on August 30, 2014 (GMT -0500)
T & T Sprinkler Service Inc. | Change Station
CLOSE
Current Station
Personal Weather Station
Location: Grimes, IA
Elevation: 955 ft
Nearby Weather Stations

Elev 955 ft 41.67 °N, 93.77 °W | Updated 45 seconds ago

Overcast
Overcast
71.3 °F
Feels Like 71.3 °F
N
1.0
Wind Variable Wind from WNW
Gusts 3.0 mph

Today
High -- | Low -- °F
--% Chance of Precip.
Yesterday
High -- | Low -- °F
Precip. -- in
6:39 AM 7:51 PM
Waxing Crescent, 22% visible
Pressure 29.89 in
Visibility 10.0 miles
Clouds Mostly Cloudy 1000 ft
Overcast 1300 ft
Dew Point 68 °F
Humidity 90%
Rainfall 0.00 in
Snow Depth Not available.
UV 1.6 out of 12
Pollen 8.20 out of 12
Ozone Good
PM2.5 Good
Flu Activity Not available.
METAR KIKV 301455Z AUTO 31007KT 10SM BKN010 OVC013 21/19 A2989 RMK AO2

More Conditions Fewer Conditions

Pressure 29.89 in
Visibility 10.0 miles
Clouds Mostly Cloudy 1000 ft
Overcast 1300 ft
Dew Point 68 °F
Humidity 90%
Rainfall 0.00 in
Snow Depth Not available.
UV 1.6 out of 12
Pollen 8.20 out of 12
Ozone Good
PM2.5 Good
Flu Activity Not available.
METAR KIKV 301455Z AUTO 31007KT 10SM BKN010 OVC013 21/19 A2989 RMK AO2

More Conditions Fewer Conditions

10-Day Weather Forecast

Almanac

Astronomy

Aug. 30, 2014 Rise Set
Actual Time 6:39 AM CDT 7:51 PM CDT
Civil Twilight 6:10 AM CDT 8:20 PM CDT
Nautical Twilight 5:35 AM CDT 8:54 PM CDT
Astronomical Twilight 4:59 AM CDT 9:30 PM CDT
Moon 11:31 AM CDT 10:21 PM CDT
Length of Visible Light 14h 09m
Length of Day
13h 12m
Tomorrow will be 2m 41s shorter.
Waxing Crescent, 22% of the Moon is Illuminated
Today
Waxing Crescent
Sep 2
First Quarter
Sep 8
Full
Sep 15
Last Quarter
Sep 24
New

Today's Extremes

State Highs State Lows

Community

WunderPhotos

Upload Photos

1,748,543 photos uploaded!

WunderBlogs® & News

Nearby

Air Quality

  Air Quality AQ Index Pollutant
Yesterday Good
PM2.5
Yesterday Good
OZONE
Current Good
OZONE
Current Good
PM2.5
Saturday Good
OZONE
Saturday Good
PM2.5
Saturday Good
CO
Saturday Good
NO2

Snow Depth

Station Depth Elevation
No new snow has been reported.

Earthquake Activity

City Distance Mag. Time & Date
No recent earthquake activity has been reported nearby.
Minimum magnitude displayed is 2.5.

Coastal Water Temperatures

Place Temperature
No Stations Reporting

Nearby Weather Stations